Sunshine Coast Airport Weather Forecast (YBSU – MCY)

METAR

METAR YBSU 230130Z AUTO 12010KT 9999 // NCD 25/16 Q1015 RMK RF00.0/000.2

TAF

TAF YBSU 222231Z 2300/2312 12012KT 9999 SCT035 RMK T 24 24 24 22 Q 1016 1015 1013 1014

QNH 

1015

Temperature & Dew Point

25° DP16